sensor_id;sensor_type;location;lat;lon;timestamp;P1;durP1;ratioP1;P2;durP2;ratioP2
51836;SDS011;38941;53.254;6.600;2023-10-09T00:01:56;8.20;;;3.15;;
51836;SDS011;38941;53.254;6.600;2023-10-09T00:03:58;9.13;;;2.53;;
51836;SDS011;38941;53.254;6.600;2023-10-09T00:06:01;9.63;;;2.60;;
51836;SDS011;38941;53.254;6.600;2023-10-09T00:08:03;9.55;;;2.83;;
51836;SDS011;38941;53.254;6.600;2023-10-09T00:10:04;9.13;;;2.95;;
51836;SDS011;38941;53.254;6.600;2023-10-09T00:12:15;8.02;;;3.15;;
51836;SDS011;38941;53.254;6.600;2023-10-09T00:14:24;9.02;;;3.03;;
51836;SDS011;38941;53.254;6.600;2023-10-09T00:16:25;9.88;;;3.50;;
51836;SDS011;38941;53.254;6.600;2023-10-09T00:18:35;10.10;;;2.67;;
51836;SDS011;38941;53.254;6.600;2023-10-09T00:20:36;7.93;;;2.65;;
51836;SDS011;38941;53.254;6.600;2023-10-09T00:22:42;12.43;;;4.15;;
51836;SDS011;38941;53.254;6.600;2023-10-09T00:24:46;6.63;;;2.55;;
51836;SDS011;38941;53.254;6.600;2023-10-09T00:26:54;12.23;;;3.45;;
51836;SDS011;38941;53.254;6.600;2023-10-09T00:29:13;6.63;;;3.00;;
51836;SDS011;38941;53.254;6.600;2023-10-09T00:31:19;11.15;;;3.50;;
51836;SDS011;38941;53.254;6.600;2023-10-09T00:33:49;8.57;;;3.13;;
51836;SDS011;38941;53.254;6.600;2023-10-09T00:35:52;15.90;;;4.28;;
51836;SDS011;38941;53.254;6.600;2023-10-09T00:37:55;8.57;;;3.92;;
51836;SDS011;38941;53.254;6.600;2023-10-09T00:40:01;9.80;;;3.40;;
51836;SDS011;38941;53.254;6.600;2023-10-09T00:42:13;14.20;;;3.88;;
51836;SDS011;38941;53.254;6.600;2023-10-09T00:44:15;12.10;;;4.53;;
51836;SDS011;38941;53.254;6.600;2023-10-09T00:46:19;8.70;;;3.80;;
51836;SDS011;38941;53.254;6.600;2023-10-09T00:48:21;10.85;;;3.88;;
51836;SDS011;38941;53.254;6.600;2023-10-09T00:50:31;10.80;;;4.20;;
51836;SDS011;38941;53.254;6.600;2023-10-09T00:52:36;9.55;;;3.75;;
51836;SDS011;38941;53.254;6.600;2023-10-09T00:54:44;10.95;;;4.00;;
51836;SDS011;38941;53.254;6.600;2023-10-09T00:56:51;15.60;;;4.13;;
51836;SDS011;38941;53.254;6.600;2023-10-09T00:58:58;12.45;;;4.90;;
51836;SDS011;38941;53.254;6.600;2023-10-09T01:01:09;13.57;;;4.95;;
51836;SDS011;38941;53.254;6.600;2023-10-09T01:03:16;13.65;;;4.93;;
51836;SDS011;38941;53.254;6.600;2023-10-09T01:05:18;17.92;;;5.45;;
51836;SDS011;38941;53.254;6.600;2023-10-09T01:07:26;11.32;;;4.82;;
51836;SDS011;38941;53.254;6.600;2023-10-09T01:09:28;13.32;;;5.72;;
51836;SDS011;38941;53.254;6.600;2023-10-09T01:11:29;17.27;;;5.07;;
51836;SDS011;38941;53.254;6.600;2023-10-09T01:13:30;15.55;;;5.68;;
51836;SDS011;38941;53.254;6.600;2023-10-09T01:15:52;18.67;;;5.75;;
51836;SDS011;38941;53.254;6.600;2023-10-09T01:17:54;17.45;;;5.15;;
51836;SDS011;38941;53.254;6.600;2023-10-09T01:19:55;12.57;;;4.82;;
51836;SDS011;38941;53.254;6.600;2023-10-09T01:21:56;17.73;;;5.80;;
51836;SDS011;38941;53.254;6.600;2023-10-09T01:24:26;15.85;;;5.88;;
51836;SDS011;38941;53.254;6.600;2023-10-09T01:26:31;15.52;;;5.85;;
51836;SDS011;38941;53.254;6.600;2023-10-09T01:28:46;21.58;;;6.55;;
51836;SDS011;38941;53.254;6.600;2023-10-09T01:30:49;16.23;;;5.70;;
51836;SDS011;38941;53.254;6.600;2023-10-09T01:32:51;16.35;;;5.53;;
51836;SDS011;38941;53.254;6.600;2023-10-09T01:34:52;19.05;;;6.35;;
51836;SDS011;38941;53.254;6.600;2023-10-09T01:36:54;14.82;;;6.28;;
51836;SDS011;38941;53.254;6.600;2023-10-09T01:38:55;21.17;;;6.70;;
51836;SDS011;38941;53.254;6.600;2023-10-09T01:40:56;24.00;;;6.80;;
51836;SDS011;38941;53.254;6.600;2023-10-09T01:43:05;20.67;;;7.53;;
51836;SDS011;38941;53.254;6.600;2023-10-09T01:45:10;20.75;;;7.25;;
51836;SDS011;38941;53.254;6.600;2023-10-09T01:47:12;21.77;;;6.88;;
51836;SDS011;38941;53.254;6.600;2023-10-09T01:49:18;21.85;;;7.03;;
51836;SDS011;38941;53.254;6.600;2023-10-09T01:51:29;23.52;;;7.55;;
51836;SDS011;38941;53.254;6.600;2023-10-09T01:53:34;25.98;;;8.18;;
51836;SDS011;38941;53.254;6.600;2023-10-09T01:55:38;19.88;;;7.75;;
51836;SDS011;38941;53.254;6.600;2023-10-09T01:57:45;23.25;;;9.20;;
51836;SDS011;38941;53.254;6.600;2023-10-09T01:59:46;25.67;;;9.43;;
51836;SDS011;38941;53.254;6.600;2023-10-09T02:01:49;23.35;;;8.95;;
51836;SDS011;38941;53.254;6.600;2023-10-09T02:03:54;34.60;;;9.10;;
51836;SDS011;38941;53.254;6.600;2023-10-09T02:06:03;28.45;;;9.45;;
51836;SDS011;38941;53.254;6.600;2023-10-09T02:08:05;25.50;;;7.82;;
51836;SDS011;38941;53.254;6.600;2023-10-09T02:10:07;24.45;;;7.70;;
51836;SDS011;38941;53.254;6.600;2023-10-09T02:12:21;26.88;;;8.90;;
51836;SDS011;38941;53.254;6.600;2023-10-09T02:14:23;25.63;;;9.50;;
51836;SDS011;38941;53.254;6.600;2023-10-09T02:16:24;28.42;;;8.98;;
51836;SDS011;38941;53.254;6.600;2023-10-09T02:18:42;28.98;;;10.15;;
51836;SDS011;38941;53.254;6.600;2023-10-09T02:23:01;32.95;;;9.68;;
51836;SDS011;38941;53.254;6.600;2023-10-09T02:25:03;26.80;;;10.65;;
51836;SDS011;38941;53.254;6.600;2023-10-09T02:27:05;24.70;;;10.20;;
51836;SDS011;38941;53.254;6.600;2023-10-09T02:29:08;27.63;;;10.10;;
51836;SDS011;38941;53.254;6.600;2023-10-09T02:31:18;32.15;;;11.13;;
51836;SDS011;38941;53.254;6.600;2023-10-09T02:33:22;26.98;;;10.43;;
51836;SDS011;38941;53.254;6.600;2023-10-09T02:35:28;24.80;;;10.43;;
51836;SDS011;38941;53.254;6.600;2023-10-09T02:37:28;30.40;;;11.32;;
51836;SDS011;38941;53.254;6.600;2023-10-09T02:39:29;27.13;;;10.23;;
51836;SDS011;38941;53.254;6.600;2023-10-09T02:41:36;32.58;;;11.25;;
51836;SDS011;38941;53.254;6.600;2023-10-09T02:43:45;30.23;;;11.70;;
51836;SDS011;38941;53.254;6.600;2023-10-09T02:45:46;34.60;;;12.05;;
51836;SDS011;38941;53.254;6.600;2023-10-09T02:47:50;25.13;;;10.40;;
51836;SDS011;38941;53.254;6.600;2023-10-09T02:49:51;28.92;;;12.13;;
51836;SDS011;38941;53.254;6.600;2023-10-09T02:51:52;29.52;;;11.48;;
51836;SDS011;38941;53.254;6.600;2023-10-09T02:53:54;30.33;;;11.13;;
51836;SDS011;38941;53.254;6.600;2023-10-09T02:55:57;30.90;;;11.40;;
51836;SDS011;38941;53.254;6.600;2023-10-09T02:58:12;36.08;;;12.70;;
51836;SDS011;38941;53.254;6.600;2023-10-09T03:00:21;34.33;;;12.18;;
51836;SDS011;38941;53.254;6.600;2023-10-09T03:02:29;32.85;;;12.43;;
51836;SDS011;38941;53.254;6.600;2023-10-09T03:04:32;29.50;;;11.40;;
51836;SDS011;38941;53.254;6.600;2023-10-09T03:06:33;29.85;;;11.98;;
51836;SDS011;38941;53.254;6.600;2023-10-09T03:08:39;26.23;;;10.90;;
51836;SDS011;38941;53.254;6.600;2023-10-09T03:10:43;32.97;;;11.82;;
51836;SDS011;38941;53.254;6.600;2023-10-09T03:12:43;30.90;;;12.75;;
51836;SDS011;38941;53.254;6.600;2023-10-09T03:14:44;31.85;;;12.80;;
51836;SDS011;38941;53.254;6.600;2023-10-09T03:16:45;36.25;;;13.95;;
51836;SDS011;38941;53.254;6.600;2023-10-09T03:18:52;37.35;;;12.27;;
51836;SDS011;38941;53.254;6.600;2023-10-09T03:20:53;33.92;;;12.65;;
51836;SDS011;38941;53.254;6.600;2023-10-09T03:22:54;32.28;;;12.77;;
51836;SDS011;38941;53.254;6.600;2023-10-09T03:24:56;32.28;;;13.63;;
51836;SDS011;38941;53.254;6.600;2023-10-09T03:26:57;35.05;;;13.18;;
51836;SDS011;38941;53.254;6.600;2023-10-09T03:28:58;33.85;;;13.20;;
51836;SDS011;38941;53.254;6.600;2023-10-09T03:31:02;35.17;;;13.35;;
51836;SDS011;38941;53.254;6.600;2023-10-09T03:33:03;34.58;;;14.52;;
51836;SDS011;38941;53.254;6.600;2023-10-09T03:35:04;37.42;;;14.13;;
51836;SDS011;38941;53.254;6.600;2023-10-09T03:37:06;36.78;;;13.88;;
51836;SDS011;38941;53.254;6.600;2023-10-09T03:39:21;36.78;;;13.43;;
51836;SDS011;38941;53.254;6.600;2023-10-09T03:41:41;38.90;;;14.48;;
51836;SDS011;38941;53.254;6.600;2023-10-09T03:43:42;39.08;;;14.80;;
51836;SDS011;38941;53.254;6.600;2023-10-09T03:45:43;38.65;;;13.90;;
51836;SDS011;38941;53.254;6.600;2023-10-09T03:47:54;35.47;;;15.40;;
51836;SDS011;38941;53.254;6.600;2023-10-09T03:50:01;34.35;;;14.15;;
51836;SDS011;38941;53.254;6.600;2023-10-09T03:52:07;35.20;;;14.57;;
51836;SDS011;38941;53.254;6.600;2023-10-09T03:54:09;36.47;;;12.93;;
51836;SDS011;38941;53.254;6.600;2023-10-09T03:56:10;38.88;;;14.73;;
51836;SDS011;38941;53.254;6.600;2023-10-09T03:58:15;38.47;;;15.00;;
51836;SDS011;38941;53.254;6.600;2023-10-09T04:00:19;35.83;;;14.00;;
51836;SDS011;38941;53.254;6.600;2023-10-09T04:02:28;32.83;;;13.45;;
51836;SDS011;38941;53.254;6.600;2023-10-09T04:04:29;37.50;;;14.63;;
51836;SDS011;38941;53.254;6.600;2023-10-09T04:06:32;39.08;;;14.80;;
51836;SDS011;38941;53.254;6.600;2023-10-09T04:08:33;36.85;;;13.45;;
51836;SDS011;38941;53.254;6.600;2023-10-09T04:10:35;32.45;;;12.75;;
51836;SDS011;38941;53.254;6.600;2023-10-09T04:13:05;29.58;;;12.65;;
51836;SDS011;38941;53.254;6.600;2023-10-09T04:15:10;36.58;;;12.57;;
51836;SDS011;38941;53.254;6.600;2023-10-09T04:17:15;30.23;;;11.70;;
51836;SDS011;38941;53.254;6.600;2023-10-09T04:19:24;36.30;;;13.25;;
51836;SDS011;38941;53.254;6.600;2023-10-09T04:21:25;31.63;;;14.35;;
51836;SDS011;38941;53.254;6.600;2023-10-09T04:23:36;30.95;;;12.35;;
51836;SDS011;38941;53.254;6.600;2023-10-09T04:25:58;28.67;;;12.07;;
51836;SDS011;38941;53.254;6.600;2023-10-09T04:28:00;35.13;;;12.52;;
51836;SDS011;38941;53.254;6.600;2023-10-09T04:30:09;28.83;;;12.07;;
51836;SDS011;38941;53.254;6.600;2023-10-09T04:32:15;24.40;;;11.32;;
51836;SDS011;38941;53.254;6.600;2023-10-09T04:34:16;24.45;;;12.50;;
51836;SDS011;38941;53.254;6.600;2023-10-09T04:36:23;31.10;;;10.98;;
51836;SDS011;38941;53.254;6.600;2023-10-09T04:38:28;34.70;;;11.80;;
51836;SDS011;38941;53.254;6.600;2023-10-09T04:40:34;23.67;;;11.02;;
51836;SDS011;38941;53.254;6.600;2023-10-09T04:42:41;29.15;;;11.40;;
51836;SDS011;38941;53.254;6.600;2023-10-09T04:44:58;32.33;;;11.80;;
51836;SDS011;38941;53.254;6.600;2023-10-09T04:47:18;25.65;;;11.10;;
51836;SDS011;38941;53.254;6.600;2023-10-09T04:49:20;32.35;;;11.38;;
51836;SDS011;38941;53.254;6.600;2023-10-09T04:51:27;26.92;;;11.73;;
51836;SDS011;38941;53.254;6.600;2023-10-09T04:53:35;28.00;;;11.00;;
51836;SDS011;38941;53.254;6.600;2023-10-09T04:55:44;31.93;;;11.60;;
51836;SDS011;38941;53.254;6.600;2023-10-09T04:57:54;25.55;;;11.38;;
51836;SDS011;38941;53.254;6.600;2023-10-09T05:00:23;27.75;;;10.85;;
51836;SDS011;38941;53.254;6.600;2023-10-09T05:02:27;29.58;;;10.85;;
51836;SDS011;38941;53.254;6.600;2023-10-09T05:06:37;27.42;;;10.52;;
51836;SDS011;38941;53.254;6.600;2023-10-09T05:08:54;29.23;;;10.20;;
51836;SDS011;38941;53.254;6.600;2023-10-09T05:12:59;26.83;;;9.77;;
51836;SDS011;38941;53.254;6.600;2023-10-09T05:15:00;25.98;;;9.40;;
51836;SDS011;38941;53.254;6.600;2023-10-09T05:17:08;25.95;;;10.18;;
51836;SDS011;38941;53.254;6.600;2023-10-09T05:19:15;28.27;;;10.18;;
51836;SDS011;38941;53.254;6.600;2023-10-09T05:23:37;20.83;;;8.30;;
51836;SDS011;38941;53.254;6.600;2023-10-09T05:25:49;23.75;;;9.25;;
51836;SDS011;38941;53.254;6.600;2023-10-09T05:27:58;28.08;;;9.35;;
51836;SDS011;38941;53.254;6.600;2023-10-09T05:30:19;26.70;;;9.57;;
51836;SDS011;38941;53.254;6.600;2023-10-09T05:32:26;22.65;;;9.82;;
51836;SDS011;38941;53.254;6.600;2023-10-09T05:34:35;26.95;;;8.35;;
51836;SDS011;38941;53.254;6.600;2023-10-09T05:36:54;26.10;;;9.25;;
51836;SDS011;38941;53.254;6.600;2023-10-09T05:39:11;25.50;;;9.60;;
51836;SDS011;38941;53.254;6.600;2023-10-09T05:41:30;23.38;;;8.57;;
51836;SDS011;38941;53.254;6.600;2023-10-09T05:43:31;29.02;;;9.23;;
51836;SDS011;38941;53.254;6.600;2023-10-09T05:48:08;25.83;;;8.27;;
51836;SDS011;38941;53.254;6.600;2023-10-09T05:50:17;21.98;;;7.38;;
51836;SDS011;38941;53.254;6.600;2023-10-09T05:52:18;19.92;;;7.80;;
51836;SDS011;38941;53.254;6.600;2023-10-09T05:54:32;17.90;;;7.20;;
51836;SDS011;38941;53.254;6.600;2023-10-09T05:56:52;21.33;;;7.40;;
51836;SDS011;38941;53.254;6.600;2023-10-09T05:59:11;19.45;;;7.28;;
51836;SDS011;38941;53.254;6.600;2023-10-09T06:01:30;15.10;;;6.47;;
51836;SDS011;38941;53.254;6.600;2023-10-09T06:03:49;15.82;;;7.18;;
51836;SDS011;38941;53.254;6.600;2023-10-09T06:05:54;20.48;;;8.13;;
51836;SDS011;38941;53.254;6.600;2023-10-09T06:07:58;20.38;;;6.82;;
51836;SDS011;38941;53.254;6.600;2023-10-09T06:10:07;20.20;;;6.40;;
51836;SDS011;38941;53.254;6.600;2023-10-09T06:12:21;21.45;;;7.28;;
51836;SDS011;38941;53.254;6.600;2023-10-09T06:14:49;22.48;;;7.00;;
51836;SDS011;38941;53.254;6.600;2023-10-09T06:16:50;20.23;;;6.75;;
51836;SDS011;38941;53.254;6.600;2023-10-09T06:19:05;16.67;;;6.25;;
51836;SDS011;38941;53.254;6.600;2023-10-09T06:21:12;19.65;;;6.43;;
51836;SDS011;38941;53.254;6.600;2023-10-09T06:23:31;20.83;;;5.95;;
51836;SDS011;38941;53.254;6.600;2023-10-09T06:26:04;24.98;;;6.55;;
51836;SDS011;38941;53.254;6.600;2023-10-09T06:28:23;18.15;;;6.15;;
51836;SDS011;38941;53.254;6.600;2023-10-09T06:32:35;22.10;;;6.28;;
51836;SDS011;38941;53.254;6.600;2023-10-09T06:34:37;17.35;;;6.30;;
51836;SDS011;38941;53.254;6.600;2023-10-09T06:36:44;15.43;;;6.20;;
51836;SDS011;38941;53.254;6.600;2023-10-09T06:38:53;18.73;;;5.63;;
51836;SDS011;38941;53.254;6.600;2023-10-09T06:41:13;15.00;;;5.57;;
51836;SDS011;38941;53.254;6.600;2023-10-09T06:43:32;20.13;;;5.93;;
51836;SDS011;38941;53.254;6.600;2023-10-09T06:45:36;17.55;;;5.72;;
51836;SDS011;38941;53.254;6.600;2023-10-09T06:47:47;16.02;;;6.13;;
51836;SDS011;38941;53.254;6.600;2023-10-09T06:50:10;22.23;;;6.30;;
51836;SDS011;38941;53.254;6.600;2023-10-09T06:52:20;15.15;;;6.07;;
51836;SDS011;38941;53.254;6.600;2023-10-09T06:54:41;18.52;;;5.65;;
51836;SDS011;38941;53.254;6.600;2023-10-09T06:56:49;13.13;;;5.47;;
51836;SDS011;38941;53.254;6.600;2023-10-09T06:58:53;16.02;;;5.15;;
51836;SDS011;38941;53.254;6.600;2023-10-09T07:01:05;19.05;;;6.90;;
51836;SDS011;38941;53.254;6.600;2023-10-09T07:03:27;26.05;;;6.65;;
51836;SDS011;38941;53.254;6.600;2023-10-09T07:05:33;13.85;;;5.25;;
51836;SDS011;38941;53.254;6.600;2023-10-09T07:07:48;20.67;;;6.75;;
51836;SDS011;38941;53.254;6.600;2023-10-09T07:09:55;26.13;;;6.60;;
51836;SDS011;38941;53.254;6.600;2023-10-09T07:12:14;19.77;;;6.68;;
51836;SDS011;38941;53.254;6.600;2023-10-09T07:14:25;18.63;;;5.18;;
51836;SDS011;38941;53.254;6.600;2023-10-09T07:16:29;18.58;;;6.07;;
51836;SDS011;38941;53.254;6.600;2023-10-09T07:18:38;23.52;;;5.55;;
51836;SDS011;38941;53.254;6.600;2023-10-09T07:20:49;18.70;;;5.78;;
51836;SDS011;38941;53.254;6.600;2023-10-09T07:22:59;15.65;;;5.25;;
51836;SDS011;38941;53.254;6.600;2023-10-09T07:25:13;18.65;;;5.78;;
51836;SDS011;38941;53.254;6.600;2023-10-09T07:27:28;22.98;;;5.68;;
51836;SDS011;38941;53.254;6.600;2023-10-09T07:29:48;17.95;;;6.10;;
51836;SDS011;38941;53.254;6.600;2023-10-09T07:31:49;18.73;;;5.35;;
51836;SDS011;38941;53.254;6.600;2023-10-09T07:33:57;21.23;;;5.68;;
51836;SDS011;38941;53.254;6.600;2023-10-09T07:35:58;18.48;;;5.97;;
51836;SDS011;38941;53.254;6.600;2023-10-09T07:38:16;16.55;;;5.82;;
51836;SDS011;38941;53.254;6.600;2023-10-09T07:40:38;20.02;;;6.90;;
51836;SDS011;38941;53.254;6.600;2023-10-09T07:42:58;17.10;;;6.32;;
51836;SDS011;38941;53.254;6.600;2023-10-09T07:45:05;25.67;;;6.85;;
51836;SDS011;38941;53.254;6.600;2023-10-09T07:47:31;19.60;;;5.68;;
51836;SDS011;38941;53.254;6.600;2023-10-09T07:50:02;13.88;;;4.43;;
51836;SDS011;38941;53.254;6.600;2023-10-09T07:52:04;18.67;;;5.40;;
51836;SDS011;38941;53.254;6.600;2023-10-09T07:54:05;22.38;;;5.75;;
51836;SDS011;38941;53.254;6.600;2023-10-09T07:56:09;21.85;;;5.47;;
51836;SDS011;38941;53.254;6.600;2023-10-09T07:58:13;17.33;;;4.90;;
51836;SDS011;38941;53.254;6.600;2023-10-09T08:00:14;17.48;;;5.45;;
51836;SDS011;38941;53.254;6.600;2023-10-09T08:02:33;18.73;;;5.65;;
51836;SDS011;38941;53.254;6.600;2023-10-09T08:04:34;19.85;;;5.25;;
51836;SDS011;38941;53.254;6.600;2023-10-09T08:06:38;15.75;;;5.25;;
51836;SDS011;38941;53.254;6.600;2023-10-09T08:08:38;16.38;;;5.57;;
51836;SDS011;38941;53.254;6.600;2023-10-09T08:10:39;18.75;;;5.65;;
51836;SDS011;38941;53.254;6.600;2023-10-09T08:14:59;22.08;;;5.45;;
51836;SDS011;38941;53.254;6.600;2023-10-09T08:17:19;14.68;;;5.32;;
51836;SDS011;38941;53.254;6.600;2023-10-09T08:19:27;17.92;;;5.00;;
51836;SDS011;38941;53.254;6.600;2023-10-09T08:21:34;19.63;;;4.68;;
51836;SDS011;38941;53.254;6.600;2023-10-09T08:24:04;28.27;;;5.97;;
51836;SDS011;38941;53.254;6.600;2023-10-09T08:26:05;15.55;;;5.30;;
51836;SDS011;38941;53.254;6.600;2023-10-09T08:28:14;17.88;;;5.32;;
51836;SDS011;38941;53.254;6.600;2023-10-09T08:30:34;21.02;;;5.93;;
51836;SDS011;38941;53.254;6.600;2023-10-09T08:35:03;16.63;;;5.57;;
51836;SDS011;38941;53.254;6.600;2023-10-09T08:37:06;14.82;;;5.30;;
51836;SDS011;38941;53.254;6.600;2023-10-09T08:39:11;24.52;;;5.18;;
51836;SDS011;38941;53.254;6.600;2023-10-09T08:41:23;26.23;;;6.85;;
51836;SDS011;38941;53.254;6.600;2023-10-09T08:43:30;18.48;;;6.22;;
51836;SDS011;38941;53.254;6.600;2023-10-09T08:45:37;16.13;;;5.03;;
51836;SDS011;38941;53.254;6.600;2023-10-09T08:47:42;17.95;;;5.25;;
51836;SDS011;38941;53.254;6.600;2023-10-09T08:49:42;22.35;;;5.35;;
51836;SDS011;38941;53.254;6.600;2023-10-09T08:51:43;22.10;;;5.70;;
51836;SDS011;38941;53.254;6.600;2023-10-09T08:53:47;13.75;;;5.68;;
51836;SDS011;38941;53.254;6.600;2023-10-09T08:55:48;19.98;;;5.88;;
51836;SDS011;38941;53.254;6.600;2023-10-09T08:57:48;18.90;;;5.38;;
51836;SDS011;38941;53.254;6.600;2023-10-09T08:59:50;19.77;;;5.07;;
51836;SDS011;38941;53.254;6.600;2023-10-09T09:01:50;20.55;;;5.13;;
51836;SDS011;38941;53.254;6.600;2023-10-09T09:03:54;18.92;;;5.03;;
51836;SDS011;38941;53.254;6.600;2023-10-09T09:05:58;15.52;;;4.75;;
51836;SDS011;38941;53.254;6.600;2023-10-09T09:08:02;22.42;;;6.05;;
51836;SDS011;38941;53.254;6.600;2023-10-09T09:10:04;18.05;;;5.22;;
51836;SDS011;38941;53.254;6.600;2023-10-09T09:12:17;19.10;;;5.55;;
51836;SDS011;38941;53.254;6.600;2023-10-09T09:14:17;23.25;;;5.63;;
51836;SDS011;38941;53.254;6.600;2023-10-09T09:16:23;22.00;;;6.05;;
51836;SDS011;38941;53.254;6.600;2023-10-09T09:18:30;14.65;;;4.13;;
51836;SDS011;38941;53.254;6.600;2023-10-09T09:20:37;21.63;;;5.38;;
51836;SDS011;38941;53.254;6.600;2023-10-09T09:22:51;14.88;;;5.43;;
51836;SDS011;38941;53.254;6.600;2023-10-09T09:24:56;18.02;;;4.05;;
51836;SDS011;38941;53.254;6.600;2023-10-09T09:27:04;14.30;;;4.75;;
51836;SDS011;38941;53.254;6.600;2023-10-09T09:29:18;14.73;;;4.43;;
51836;SDS011;38941;53.254;6.600;2023-10-09T09:31:20;8.98;;;4.50;;
51836;SDS011;38941;53.254;6.600;2023-10-09T09:35:55;15.93;;;4.97;;
51836;SDS011;38941;53.254;6.600;2023-10-09T09:40:06;13.52;;;3.97;;
51836;SDS011;38941;53.254;6.600;2023-10-09T09:42:28;15.32;;;4.28;;
51836;SDS011;38941;53.254;6.600;2023-10-09T09:44:31;15.45;;;4.15;;
51836;SDS011;38941;53.254;6.600;2023-10-09T09:46:34;16.83;;;5.00;;
51836;SDS011;38941;53.254;6.600;2023-10-09T09:48:38;13.85;;;4.50;;
51836;SDS011;38941;53.254;6.600;2023-10-09T09:50:39;18.95;;;6.53;;
51836;SDS011;38941;53.254;6.600;2023-10-09T09:52:46;20.77;;;4.47;;
51836;SDS011;38941;53.254;6.600;2023-10-09T09:54:50;13.38;;;4.63;;
51836;SDS011;38941;53.254;6.600;2023-10-09T09:56:51;18.30;;;4.60;;
51836;SDS011;38941;53.254;6.600;2023-10-09T09:58:54;15.75;;;4.53;;
51836;SDS011;38941;53.254;6.600;2023-10-09T10:01:01;15.02;;;4.68;;
51836;SDS011;38941;53.254;6.600;2023-10-09T10:03:17;19.23;;;4.82;;
51836;SDS011;38941;53.254;6.600;2023-10-09T10:05:22;15.93;;;3.80;;
51836;SDS011;38941;53.254;6.600;2023-10-09T10:07:23;15.77;;;4.35;;
51836;SDS011;38941;53.254;6.600;2023-10-09T10:09:40;16.50;;;4.53;;
51836;SDS011;38941;53.254;6.600;2023-10-09T10:11:46;15.98;;;4.40;;
51836;SDS011;38941;53.254;6.600;2023-10-09T10:18:08;16.02;;;4.30;;
51836;SDS011;38941;53.254;6.600;2023-10-09T10:20:10;10.88;;;3.58;;
51836;SDS011;38941;53.254;6.600;2023-10-09T10:22:23;11.15;;;3.15;;
51836;SDS011;38941;53.254;6.600;2023-10-09T10:26:28;13.93;;;3.85;;
51836;SDS011;38941;53.254;6.600;2023-10-09T10:28:33;21.08;;;4.93;;
51836;SDS011;38941;53.254;6.600;2023-10-09T10:30:47;10.75;;;3.10;;
51836;SDS011;38941;53.254;6.600;2023-10-09T10:32:54;16.25;;;4.30;;
51836;SDS011;38941;53.254;6.600;2023-10-09T10:34:57;14.35;;;3.95;;
51836;SDS011;38941;53.254;6.600;2023-10-09T10:36:59;15.45;;;3.63;;
51836;SDS011;38941;53.254;6.600;2023-10-09T10:39:00;13.73;;;3.30;;
51836;SDS011;38941;53.254;6.600;2023-10-09T10:41:14;17.38;;;3.58;;
51836;SDS011;38941;53.254;6.600;2023-10-09T10:43:19;13.88;;;3.65;;
51836;SDS011;38941;53.254;6.600;2023-10-09T10:45:32;13.88;;;3.30;;
51836;SDS011;38941;53.254;6.600;2023-10-09T10:47:43;11.70;;;3.85;;
51836;SDS011;38941;53.254;6.600;2023-10-09T10:49:48;15.48;;;3.45;;
51836;SDS011;38941;53.254;6.600;2023-10-09T10:51:51;12.13;;;3.55;;
51836;SDS011;38941;53.254;6.600;2023-10-09T10:54:10;16.75;;;3.95;;
51836;SDS011;38941;53.254;6.600;2023-10-09T10:56:29;15.98;;;3.50;;
51836;SDS011;38941;53.254;6.600;2023-10-09T11:00:54;14.60;;;3.55;;
51836;SDS011;38941;53.254;6.600;2023-10-09T11:02:57;12.23;;;3.33;;
51836;SDS011;38941;53.254;6.600;2023-10-09T11:05:13;16.00;;;3.13;;
51836;SDS011;38941;53.254;6.600;2023-10-09T11:07:14;15.10;;;3.17;;
51836;SDS011;38941;53.254;6.600;2023-10-09T11:09:26;15.63;;;4.07;;
51836;SDS011;38941;53.254;6.600;2023-10-09T11:11:36;15.65;;;4.00;;
51836;SDS011;38941;53.254;6.600;2023-10-09T11:13:47;14.40;;;3.85;;
51836;SDS011;38941;53.254;6.600;2023-10-09T11:16:04;15.18;;;3.17;;
51836;SDS011;38941;53.254;6.600;2023-10-09T11:18:29;9.82;;;2.40;;
51836;SDS011;38941;53.254;6.600;2023-10-09T11:20:29;13.95;;;3.30;;
51836;SDS011;38941;53.254;6.600;2023-10-09T11:22:35;8.23;;;2.97;;
51836;SDS011;38941;53.254;6.600;2023-10-09T11:24:50;9.32;;;2.40;;
51836;SDS011;38941;53.254;6.600;2023-10-09T11:27:11;10.90;;;2.45;;
51836;SDS011;38941;53.254;6.600;2023-10-09T11:29:19;8.32;;;2.33;;
51836;SDS011;38941;53.254;6.600;2023-10-09T11:31:40;6.18;;;2.65;;
51836;SDS011;38941;53.254;6.600;2023-10-09T11:33:49;8.57;;;2.33;;
51836;SDS011;38941;53.254;6.600;2023-10-09T11:35:55;11.35;;;2.25;;
51836;SDS011;38941;53.254;6.600;2023-10-09T11:37:57;13.70;;;2.75;;
51836;SDS011;38941;53.254;6.600;2023-10-09T11:40:31;10.90;;;2.55;;
51836;SDS011;38941;53.254;6.600;2023-10-09T11:44:57;11.27;;;2.35;;
51836;SDS011;38941;53.254;6.600;2023-10-09T11:47:04;8.60;;;2.70;;
51836;SDS011;38941;53.254;6.600;2023-10-09T11:49:18;9.73;;;3.35;;
51836;SDS011;38941;53.254;6.600;2023-10-09T11:51:21;10.50;;;2.88;;
51836;SDS011;38941;53.254;6.600;2023-10-09T11:53:22;12.88;;;2.50;;
51836;SDS011;38941;53.254;6.600;2023-10-09T11:55:23;8.25;;;2.47;;
51836;SDS011;38941;53.254;6.600;2023-10-09T11:57:25;9.80;;;2.53;;
51836;SDS011;38941;53.254;6.600;2023-10-09T11:59:34;12.57;;;3.05;;
51836;SDS011;38941;53.254;6.600;2023-10-09T12:01:37;10.85;;;3.05;;
51836;SDS011;38941;53.254;6.600;2023-10-09T12:03:42;8.13;;;2.30;;
51836;SDS011;38941;53.254;6.600;2023-10-09T12:05:44;9.82;;;2.65;;
51836;SDS011;38941;53.254;6.600;2023-10-09T12:07:45;9.60;;;3.22;;
51836;SDS011;38941;53.254;6.600;2023-10-09T12:09:46;7.07;;;2.70;;
51836;SDS011;38941;53.254;6.600;2023-10-09T12:11:48;7.50;;;2.55;;
51836;SDS011;38941;53.254;6.600;2023-10-09T12:13:52;8.18;;;2.20;;
51836;SDS011;38941;53.254;6.600;2023-10-09T12:15:57;12.13;;;2.30;;
51836;SDS011;38941;53.254;6.600;2023-10-09T12:17:58;8.93;;;2.53;;
51836;SDS011;38941;53.254;6.600;2023-10-09T12:19:59;15.60;;;2.92;;
51836;SDS011;38941;53.254;6.600;2023-10-09T12:22:00;12.85;;;2.90;;
51836;SDS011;38941;53.254;6.600;2023-10-09T12:24:05;7.35;;;2.38;;
51836;SDS011;38941;53.254;6.600;2023-10-09T12:26:11;16.80;;;3.08;;
51836;SDS011;38941;53.254;6.600;2023-10-09T12:28:14;7.53;;;3.75;;
51836;SDS011;38941;53.254;6.600;2023-10-09T12:30:15;12.20;;;3.20;;
51836;SDS011;38941;53.254;6.600;2023-10-09T12:32:16;11.35;;;2.47;;
51836;SDS011;38941;53.254;6.600;2023-10-09T12:34:21;11.77;;;3.08;;
51836;SDS011;38941;53.254;6.600;2023-10-09T12:36:22;20.02;;;3.65;;
51836;SDS011;38941;53.254;6.600;2023-10-09T12:38:24;8.98;;;2.58;;
51836;SDS011;38941;53.254;6.600;2023-10-09T12:40:31;11.02;;;2.67;;
51836;SDS011;38941;53.254;6.600;2023-10-09T12:42:32;10.45;;;2.90;;
51836;SDS011;38941;53.254;6.600;2023-10-09T12:44:33;12.43;;;2.20;;
51836;SDS011;38941;53.254;6.600;2023-10-09T12:46:34;10.95;;;2.17;;
51836;SDS011;38941;53.254;6.600;2023-10-09T12:48:37;6.90;;;2.15;;
51836;SDS011;38941;53.254;6.600;2023-10-09T12:50:38;8.70;;;2.50;;
51836;SDS011;38941;53.254;6.600;2023-10-09T12:52:41;9.85;;;2.40;;
51836;SDS011;38941;53.254;6.600;2023-10-09T12:54:42;13.90;;;2.40;;
51836;SDS011;38941;53.254;6.600;2023-10-09T12:56:46;11.98;;;3.40;;
51836;SDS011;38941;53.254;6.600;2023-10-09T12:58:49;9.63;;;2.83;;
51836;SDS011;38941;53.254;6.600;2023-10-09T13:00:53;10.75;;;2.40;;
51836;SDS011;38941;53.254;6.600;2023-10-09T13:02:54;6.88;;;2.20;;
51836;SDS011;38941;53.254;6.600;2023-10-09T13:04:55;10.02;;;2.25;;
51836;SDS011;38941;53.254;6.600;2023-10-09T13:06:57;15.50;;;3.33;;
51836;SDS011;38941;53.254;6.600;2023-10-09T13:09:02;12.32;;;2.80;;